McAdams, Mississippi
Current Conditions -  °F | °C
As of 8:53 AM on Sunday 23 Nov 2014 (Local Time) from KGWO Reporting Station
Light Rain Light Rain  
Wind Chill: 60°   Ceiling: 600
Heat Index: 60°   Visibility: 7mi
Dew Point: 58°   Wind: 9mph
Humidity: 93%   Direction: 110°ESE
Pressure: 29.66"   Gusts: NA
Location:  33.02°N, 89.69°W
Report Text: KGWO 231453Z AUTO 11008KT 7SM -RA OVC006 16/14 A2966 RMK AO2 SLP041 P0003 60004 T01560144 58036 TSNO
Loading
Personal Weather Stations






























Interactive Weather Map New forecast layout! Learn more

10-Day Weather Forecast

Advertisements
Track Severe Weather on mobile